F/V J. Louis Vincent — FQBL — position and weather

sailwx.info

Track history (hours):
 
Tides and Currents Weather Stations Pressure Air Temp Water Temp Dewpoint Dewpoint Depression Visibility Wind Speed Wind Dir Waves Ship Positions

F/V J. Louis Vincent

Last reported at 2016-Aug-26 06:33 UTC. Time now 2016-Aug-29 08:51 UTC.
Position N 42°50' E 004°18'.

Length 29 m; draft 3.5 m.

Type: Fishing. MMSI: 227146600.

Date/timePositionNaut miles runAvg speedWind from/ knotsBaromVisibWave heightAir tempDewpointWater temp
2016-Aug-26 06:33N 42°50' E 004°18'43 3.0
2016-Aug-25 16:06N 43°24' E 003°42'21 5.4
2016-Aug-25 12:09N 43°03' E 003°45'3 4.4
2016-Aug-25 11:33N 42°60' E 003°44'15 3.6
2016-Aug-25 07:22N 42°46' E 003°35'22 4.3
2016-Aug-25 02:07N 43°09' E 003°36'13 1.1
2016-Aug-24 14:25N 43°20' E 003°43'1010.9
2016-Aug-24 13:29N 43°11' E 003°47'4 4.0
2016-Aug-24 12:31N 43°07' E 003°48'9 4.1
2016-Aug-24 10:16N 42°58' E 003°51'4 4.3
2016-Aug-24 09:14N 42°59' E 003°57'3 4.3
2016-Aug-24 08:33N 42°59' E 004°01'4 4.3
2016-Aug-24 07:31N 42°59' E 004°07'0 0.4
2016-Aug-24 06:19N 42°59' E 004°06'16 4.3
2016-Aug-24 02:32N 43°04' E 003°45'10 0.6
2016-Aug-23 09:07N 42°59' E 003°56'  
Track history (hours):
 
Tides and Currents Weather Stations Pressure Air Temp Water Temp Dewpoint Dewpoint Depression Visibility Wind Speed Wind Dir Waves Ship Positions

F/V J. Louis Vincent

Last reported at 2016-Aug-26 06:33 UTC. Time now 2016-Aug-29 08:51 UTC.
Position N 42°50' E 004°18'.

Length 29 m; draft 3.5 m.

Type: Fishing. MMSI: 227146600.

Date/timePositionNaut miles runAvg speedWind from/ knotsBaromVisibWave heightAir tempDewpointWater temp
2016-Aug-26 06:33N 42°50' E 004°18'43 3.0
2016-Aug-25 16:06N 43°24' E 003°42'21 5.4
2016-Aug-25 12:09N 43°03' E 003°45'3 4.4
2016-Aug-25 11:33N 42°60' E 003°44'15 3.6
2016-Aug-25 07:22N 42°46' E 003°35'22 4.3
2016-Aug-25 02:07N 43°09' E 003°36'13 1.1
2016-Aug-24 14:25N 43°20' E 003°43'1010.9
2016-Aug-24 13:29N 43°11' E 003°47'4 4.0
2016-Aug-24 12:31N 43°07' E 003°48'9 4.1
2016-Aug-24 10:16N 42°58' E 003°51'4 4.3
2016-Aug-24 09:14N 42°59' E 003°57'3 4.3
2016-Aug-24 08:33N 42°59' E 004°01'4 4.3
2016-Aug-24 07:31N 42°59' E 004°07'0 0.4
2016-Aug-24 06:19N 42°59' E 004°06'16 4.3
2016-Aug-24 02:32N 43°04' E 003°45'10 0.6
2016-Aug-23 09:07N 42°59' E 003°56'  

Dump ship's entire track history